sensor_id;sensor_type;location;lat;lon;timestamp;pressure;altitude;pressure_sealevel;temperature;humidity
12468;BME280;57850;52.922;6.256;2023-04-30T00:00:03;102794.25;;;12.23;100.00
12468;BME280;57850;52.922;6.256;2023-04-30T00:02:32;102786.47;;;12.18;100.00
12468;BME280;57850;52.922;6.256;2023-04-30T00:04:59;102790.03;;;12.10;100.00
12468;BME280;57850;52.922;6.256;2023-04-30T00:07:27;102779.66;;;12.01;100.00
12468;BME280;57850;52.922;6.256;2023-04-30T00:09:53;102764.84;;;12.01;100.00
12468;BME280;57850;52.922;6.256;2023-04-30T00:12:20;102769.16;;;12.04;100.00
12468;BME280;57850;52.922;6.256;2023-04-30T00:14:46;102763.91;;;12.08;100.00
12468;BME280;57850;52.922;6.256;2023-04-30T00:17:13;102774.38;;;12.07;100.00
12468;BME280;57850;52.922;6.256;2023-04-30T00:19:40;102778.06;;;11.88;100.00
12468;BME280;57850;52.922;6.256;2023-04-30T00:22:06;102792.31;;;11.53;100.00
12468;BME280;57850;52.922;6.256;2023-04-30T00:24:34;102789.63;;;11.61;100.00
12468;BME280;57850;52.922;6.256;2023-04-30T00:27:01;102791.41;;;11.59;100.00
12468;BME280;57850;52.922;6.256;2023-04-30T00:29:27;102786.31;;;11.42;100.00
12468;BME280;57850;52.922;6.256;2023-04-30T00:31:54;102791.72;;;11.19;100.00
12468;BME280;57850;52.922;6.256;2023-04-30T00:34:21;102777.72;;;11.29;100.00
12468;BME280;57850;52.922;6.256;2023-04-30T00:36:47;102769.75;;;11.45;100.00
12468;BME280;57850;52.922;6.256;2023-04-30T00:39:14;102778.53;;;11.35;100.00
12468;BME280;57850;52.922;6.256;2023-04-30T00:41:42;102796.19;;;11.08;100.00
12468;BME280;57850;52.922;6.256;2023-04-30T00:44:08;102785.72;;;11.08;100.00
12468;BME280;57850;52.922;6.256;2023-04-30T00:46:35;102779.56;;;11.17;100.00
12468;BME280;57850;52.922;6.256;2023-04-30T00:49:01;102771.50;;;11.43;100.00
12468;BME280;57850;52.922;6.256;2023-04-30T00:51:31;102783.91;;;11.16;100.00
12468;BME280;57850;52.922;6.256;2023-04-30T00:54:00;102798.75;;;11.10;100.00
12468;BME280;57850;52.922;6.256;2023-04-30T00:56:27;102788.41;;;10.99;100.00
12468;BME280;57850;52.922;6.256;2023-04-30T00:58:56;102785.81;;;10.90;100.00
12468;BME280;57850;52.922;6.256;2023-04-30T01:01:23;102784.22;;;10.74;100.00
12468;BME280;57850;52.922;6.256;2023-04-30T01:03:50;102777.31;;;10.61;100.00
12468;BME280;57850;52.922;6.256;2023-04-30T01:06:17;102765.09;;;10.66;100.00
12468;BME280;57850;52.922;6.256;2023-04-30T01:08:43;102762.38;;;10.81;100.00
12468;BME280;57850;52.922;6.256;2023-04-30T01:11:16;102770.31;;;10.67;100.00
12468;BME280;57850;52.922;6.256;2023-04-30T01:13:54;102774.78;;;10.43;100.00
12468;BME280;57850;52.922;6.256;2023-04-30T01:16:26;102760.75;;;10.62;100.00
12468;BME280;57850;52.922;6.256;2023-04-30T01:18:58;102768.56;;;10.66;100.00
12468;BME280;57850;52.922;6.256;2023-04-30T01:21:26;102766.00;;;10.60;100.00
12468;BME280;57850;52.922;6.256;2023-04-30T01:24:11;102774.78;;;10.49;100.00
12468;BME280;57850;52.922;6.256;2023-04-30T01:26:52;102770.47;;;10.39;100.00
12468;BME280;57850;52.922;6.256;2023-04-30T01:29:21;102778.28;;;10.39;100.00
12468;BME280;57850;52.922;6.256;2023-04-30T01:31:47;102766.03;;;10.50;100.00
12468;BME280;57850;52.922;6.256;2023-04-30T01:34:14;102758.22;;;10.50;100.00
12468;BME280;57850;52.922;6.256;2023-04-30T01:36:49;102766.09;;;10.41;100.00
12468;BME280;57850;52.922;6.256;2023-04-30T01:39:28;102763.47;;;10.48;100.00
12468;BME280;57850;52.922;6.256;2023-04-30T01:42:07;102764.41;;;10.28;100.00
12468;BME280;57850;52.922;6.256;2023-04-30T01:44:48;102764.34;;;10.46;100.00
12468;BME280;57850;52.922;6.256;2023-04-30T01:47:24;102769.59;;;10.38;100.00
12468;BME280;57850;52.922;6.256;2023-04-30T01:49:58;102767.00;;;10.35;100.00
12468;BME280;57850;52.922;6.256;2023-04-30T01:52:35;102764.41;;;10.25;100.00
12468;BME280;57850;52.922;6.256;2023-04-30T01:55:08;102763.56;;;10.19;100.00
12468;BME280;57850;52.922;6.256;2023-04-30T01:57:39;102763.59;;;10.07;100.00
12468;BME280;57850;52.922;6.256;2023-04-30T02:00:09;102767.94;;;9.96;100.00
12468;BME280;57850;52.922;6.256;2023-04-30T02:02:36;102763.66;;;9.68;100.00
12468;BME280;57850;52.922;6.256;2023-04-30T02:05:03;102744.56;;;9.66;100.00
12468;BME280;57850;52.922;6.256;2023-04-30T02:07:38;102741.09;;;9.67;100.00
12468;BME280;57850;52.922;6.256;2023-04-30T02:10:06;102741.03;;;9.84;100.00
12468;BME280;57850;52.922;6.256;2023-04-30T02:12:33;102745.44;;;9.80;100.00
12468;BME280;57850;52.922;6.256;2023-04-30T02:15:00;102741.06;;;9.82;100.00
12468;BME280;57850;52.922;6.256;2023-04-30T02:17:29;102758.47;;;9.68;100.00
12468;BME280;57850;52.922;6.256;2023-04-30T02:19:57;102764.56;;;9.58;100.00
12468;BME280;57850;52.922;6.256;2023-04-30T02:22:24;102755.00;;;9.49;100.00
12468;BME280;57850;52.922;6.256;2023-04-30T02:24:50;102760.25;;;9.34;100.00
12468;BME280;57850;52.922;6.256;2023-04-30T02:27:20;102754.16;;;9.29;100.00
12468;BME280;57850;52.922;6.256;2023-04-30T02:29:47;102755.91;;;9.36;100.00
12468;BME280;57850;52.922;6.256;2023-04-30T02:32:14;102760.22;;;8.99;100.00
12468;BME280;57850;52.922;6.256;2023-04-30T02:34:41;102740.25;;;9.21;100.00
12468;BME280;57850;52.922;6.256;2023-04-30T02:37:08;102743.75;;;9.15;100.00
12468;BME280;57850;52.922;6.256;2023-04-30T02:39:35;102748.09;;;9.01;100.00
12468;BME280;57850;52.922;6.256;2023-04-30T02:42:01;102751.53;;;8.91;100.00
12468;BME280;57850;52.922;6.256;2023-04-30T02:44:28;102738.53;;;9.25;100.00
12468;BME280;57850;52.922;6.256;2023-04-30T02:46:55;102747.25;;;9.14;100.00
12468;BME280;57850;52.922;6.256;2023-04-30T02:49:21;102741.13;;;8.96;100.00
12468;BME280;57850;52.922;6.256;2023-04-30T02:51:49;102733.31;;;8.93;100.00
12468;BME280;57850;52.922;6.256;2023-04-30T02:54:16;102739.38;;;9.11;100.00
12468;BME280;57850;52.922;6.256;2023-04-30T02:56:42;102742.88;;;9.17;100.00
12468;BME280;57850;52.922;6.256;2023-04-30T02:59:10;102737.69;;;8.98;100.00
12468;BME280;57850;52.922;6.256;2023-04-30T03:01:37;102729.84;;;9.27;100.00
12468;BME280;57850;52.922;6.256;2023-04-30T03:04:03;102718.53;;;9.46;100.00
12468;BME280;57850;52.922;6.256;2023-04-30T03:06:30;102725.50;;;9.40;100.00
12468;BME280;57850;52.922;6.256;2023-04-30T03:08:59;102734.19;;;9.02;100.00
12468;BME280;57850;52.922;6.256;2023-04-30T03:11:25;102726.38;;;9.04;100.00
12468;BME280;57850;52.922;6.256;2023-04-30T03:13:52;102710.75;;;9.19;100.00
12468;BME280;57850;52.922;6.256;2023-04-30T03:16:20;102710.78;;;9.27;100.00
12468;BME280;57850;52.922;6.256;2023-04-30T03:18:47;102709.88;;;9.47;100.00
12468;BME280;57850;52.922;6.256;2023-04-30T03:21:14;102716.81;;;9.48;100.00
12468;BME280;57850;52.922;6.256;2023-04-30T03:23:41;102725.50;;;9.44;100.00
12468;BME280;57850;52.922;6.256;2023-04-30T03:26:09;102728.97;;;9.28;100.00
12468;BME280;57850;52.922;6.256;2023-04-30T03:28:35;102724.66;;;9.26;100.00
12468;BME280;57850;52.922;6.256;2023-04-30T03:31:02;102725.50;;;9.09;100.00
12468;BME280;57850;52.922;6.256;2023-04-30T03:33:30;102729.00;;;9.24;100.00
12468;BME280;57850;52.922;6.256;2023-04-30T03:35:57;102726.38;;;9.30;100.00
12468;BME280;57850;52.922;6.256;2023-04-30T03:38:24;102735.06;;;9.23;100.00
12468;BME280;57850;52.922;6.256;2023-04-30T03:40:50;102745.50;;;9.20;100.00
12468;BME280;57850;52.922;6.256;2023-04-30T03:43:18;102733.31;;;9.00;100.00
12468;BME280;57850;52.922;6.256;2023-04-30T03:45:45;102725.50;;;9.12;100.00
12468;BME280;57850;52.922;6.256;2023-04-30T03:48:12;102722.91;;;9.12;100.00
12468;BME280;57850;52.922;6.256;2023-04-30T03:50:38;102729.88;;;9.17;100.00
12468;BME280;57850;52.922;6.256;2023-04-30T03:53:05;102734.19;;;9.11;100.00
12468;BME280;57850;52.922;6.256;2023-04-30T03:55:32;102739.41;;;9.07;100.00
12468;BME280;57850;52.922;6.256;2023-04-30T03:57:59;102749.81;;;9.02;100.00
12468;BME280;57850;52.922;6.256;2023-04-30T04:00:28;102736.78;;;8.83;100.00
12468;BME280;57850;52.922;6.256;2023-04-30T04:02:56;102731.59;;;8.99;100.00
12468;BME280;57850;52.922;6.256;2023-04-30T04:05:23;102735.06;;;9.04;100.00
12468;BME280;57850;52.922;6.256;2023-04-30T04:07:49;102737.69;;;9.17;100.00
12468;BME280;57850;52.922;6.256;2023-04-30T04:10:16;102740.25;;;9.24;100.00
12468;BME280;57850;52.922;6.256;2023-04-30T04:12:42;102751.56;;;9.12;100.00
12468;BME280;57850;52.922;6.256;2023-04-30T04:15:09;102750.66;;;8.91;100.00
12468;BME280;57850;52.922;6.256;2023-04-30T04:17:37;102755.88;;;8.83;100.00
12468;BME280;57850;52.922;6.256;2023-04-30T04:20:05;102760.22;;;8.83;100.00
12468;BME280;57850;52.922;6.256;2023-04-30T04:22:32;102761.91;;;8.70;100.00
12468;BME280;57850;52.922;6.256;2023-04-30T04:24:58;102761.09;;;8.92;100.00
12468;BME280;57850;52.922;6.256;2023-04-30T04:27:25;102751.56;;;8.97;100.00
12468;BME280;57850;52.922;6.256;2023-04-30T04:29:52;102752.41;;;8.99;100.00
12468;BME280;57850;52.922;6.256;2023-04-30T04:32:19;102763.69;;;8.94;100.00
12468;BME280;57850;52.922;6.256;2023-04-30T04:34:48;102756.75;;;8.94;100.00
12468;BME280;57850;52.922;6.256;2023-04-30T04:37:14;102750.69;;;9.10;100.00
12468;BME280;57850;52.922;6.256;2023-04-30T04:39:41;102761.97;;;9.12;100.00
12468;BME280;57850;52.922;6.256;2023-04-30T04:42:09;102757.63;;;9.16;100.00
12468;BME280;57850;52.922;6.256;2023-04-30T04:44:35;102766.31;;;9.15;100.00
12468;BME280;57850;52.922;6.256;2023-04-30T04:47:02;102761.97;;;9.15;100.00
12468;BME280;57850;52.922;6.256;2023-04-30T04:49:28;102782.75;;;8.90;100.00
12468;BME280;57850;52.922;6.256;2023-04-30T04:51:56;102773.25;;;8.95;100.00
12468;BME280;57850;52.922;6.256;2023-04-30T04:54:23;102786.22;;;8.74;100.00
12468;BME280;57850;52.922;6.256;2023-04-30T04:56:49;102775.78;;;8.66;100.00
12468;BME280;57850;52.922;6.256;2023-04-30T04:59:16;102768.00;;;8.75;100.00
12468;BME280;57850;52.922;6.256;2023-04-30T05:01:43;102763.66;;;8.74;100.00
12468;BME280;57850;52.922;6.256;2023-04-30T05:04:10;102761.97;;;8.94;100.00
12468;BME280;57850;52.922;6.256;2023-04-30T05:06:38;102761.13;;;9.23;100.00
12468;BME280;57850;52.922;6.256;2023-04-30T05:09:06;102758.50;;;9.44;100.00
12468;BME280;57850;52.922;6.256;2023-04-30T05:11:33;102753.25;;;9.68;100.00
12468;BME280;57850;52.922;6.256;2023-04-30T05:14:00;102751.47;;;9.81;100.00
12468;BME280;57850;52.922;6.256;2023-04-30T05:16:27;102748.03;;;9.71;100.00
12468;BME280;57850;52.922;6.256;2023-04-30T05:18:53;102738.47;;;9.82;100.00
12468;BME280;57850;52.922;6.256;2023-04-30T05:21:20;102741.88;;;9.98;100.00
12468;BME280;57850;52.922;6.256;2023-04-30T05:23:47;102735.75;;;10.18;100.00
12468;BME280;57850;52.922;6.256;2023-04-30T05:26:15;102751.34;;;10.28;100.00
12468;BME280;57850;52.922;6.256;2023-04-30T05:28:41;102744.47;;;10.11;100.00
12468;BME280;57850;52.922;6.256;2023-04-30T05:31:08;102733.16;;;10.11;100.00
12468;BME280;57850;52.922;6.256;2023-04-30T05:33:34;102720.09;;;10.09;100.00
12468;BME280;57850;52.922;6.256;2023-04-30T05:36:02;102730.50;;;10.29;100.00
12468;BME280;57850;52.922;6.256;2023-04-30T05:38:28;102741.00;;;10.00;100.00
12468;BME280;57850;52.922;6.256;2023-04-30T05:40:55;102727.06;;;10.09;100.00
12468;BME280;57850;52.922;6.256;2023-04-30T05:43:23;102724.38;;;10.36;100.00
12468;BME280;57850;52.922;6.256;2023-04-30T05:45:49;102732.94;;;10.56;100.00
12468;BME280;57850;52.922;6.256;2023-04-30T05:48:16;102743.44;;;10.47;100.00
12468;BME280;57850;52.922;6.256;2023-04-30T05:50:42;102734.59;;;10.72;100.00
12468;BME280;57850;52.922;6.256;2023-04-30T05:53:09;102745.84;;;10.82;100.00
12468;BME280;57850;52.922;6.256;2023-04-30T05:55:35;102748.38;;;10.94;100.00
12468;BME280;57850;52.922;6.256;2023-04-30T05:58:02;102757.00;;;11.05;100.00
12468;BME280;57850;52.922;6.256;2023-04-30T06:00:30;102765.81;;;10.91;100.00
12468;BME280;57850;52.922;6.256;2023-04-30T06:02:57;102764.03;;;10.99;100.00
12468;BME280;57850;52.922;6.256;2023-04-30T06:05:24;102743.00;;;11.12;100.00
12468;BME280;57850;52.922;6.256;2023-04-30T06:07:50;102742.91;;;11.24;100.00
12468;BME280;57850;52.922;6.256;2023-04-30T06:10:17;102747.25;;;11.27;100.00
12468;BME280;57850;52.922;6.256;2023-04-30T06:12:43;102754.13;;;11.34;100.00
12468;BME280;57850;52.922;6.256;2023-04-30T06:15:10;102765.44;;;11.38;100.00
12468;BME280;57850;52.922;6.256;2023-04-30T06:17:38;102772.41;;;11.39;100.00
12468;BME280;57850;52.922;6.256;2023-04-30T06:20:05;102784.81;;;11.12;100.00
12468;BME280;57850;52.922;6.256;2023-04-30T06:22:32;102769.81;;;11.36;100.00
12468;BME280;57850;52.922;6.256;2023-04-30T06:24:59;102773.91;;;11.70;100.00
12468;BME280;57850;52.922;6.256;2023-04-30T06:27:26;102798.53;;;11.39;100.00
12468;BME280;57850;52.922;6.256;2023-04-30T06:29:53;102810.88;;;11.18;100.00
12468;BME280;57850;52.922;6.256;2023-04-30T06:32:20;102794.16;;;11.42;100.00
12468;BME280;57850;52.922;6.256;2023-04-30T06:34:47;102800.13;;;11.58;100.00
12468;BME280;57850;52.922;6.256;2023-04-30T06:37:14;102807.06;;;11.60;100.00
12468;BME280;57850;52.922;6.256;2023-04-30T06:39:40;102799.88;;;11.87;100.00
12468;BME280;57850;52.922;6.256;2023-04-30T06:42:07;102790.94;;;12.09;100.00
12468;BME280;57850;52.922;6.256;2023-04-30T06:44:33;102799.59;;;12.12;100.00
12468;BME280;57850;52.922;6.256;2023-04-30T06:47:00;102795.91;;;12.28;100.00
12468;BME280;57850;52.922;6.256;2023-04-30T06:49:26;102802.75;;;12.42;100.00
12468;BME280;57850;52.922;6.256;2023-04-30T06:51:54;102815.19;;;12.23;100.00
12468;BME280;57850;52.922;6.256;2023-04-30T06:54:22;102812.25;;;12.49;100.00
12468;BME280;57850;52.922;6.256;2023-04-30T06:56:50;102833.47;;;12.26;100.00
12468;BME280;57850;52.922;6.256;2023-04-30T06:59:17;102824.41;;;12.56;100.00
12468;BME280;57850;52.922;6.256;2023-04-30T07:01:43;102813.63;;;12.75;100.00
12468;BME280;57850;52.922;6.256;2023-04-30T07:04:10;102809.91;;;12.93;100.00
12468;BME280;57850;52.922;6.256;2023-04-30T07:06:37;102807.38;;;12.87;100.00
12468;BME280;57850;52.922;6.256;2023-04-30T07:09:05;102805.13;;;12.60;100.00
12468;BME280;57850;52.922;6.256;2023-04-30T07:11:32;102807.38;;;12.87;100.00
12468;BME280;57850;52.922;6.256;2023-04-30T07:13:58;102829.75;;;12.45;100.00
12468;BME280;57850;52.922;6.256;2023-04-30T07:16:25;102809.19;;;12.83;100.00
12468;BME280;57850;52.922;6.256;2023-04-30T07:18:52;102801.63;;;13.23;100.00
12468;BME280;57850;52.922;6.256;2023-04-30T07:21:18;102803.78;;;13.51;100.00
12468;BME280;57850;52.922;6.256;2023-04-30T07:23:46;102795.03;;;13.53;100.00
12468;BME280;57850;52.922;6.256;2023-04-30T07:26:14;102807.50;;;13.37;100.00
12468;BME280;57850;52.922;6.256;2023-04-30T07:28:40;102790.16;;;13.79;100.00
12468;BME280;57850;52.922;6.256;2023-04-30T07:31:07;102803.00;;;13.44;100.00
12468;BME280;57850;52.922;6.256;2023-04-30T07:33:34;102793.78;;;13.72;100.00
12468;BME280;57850;52.922;6.256;2023-04-30T07:36:01;102785.97;;;13.69;100.00
12468;BME280;57850;52.922;6.256;2023-04-30T07:38:27;102779.06;;;14.11;100.00
12468;BME280;57850;52.922;6.256;2023-04-30T07:40:54;102777.16;;;14.18;100.00
12468;BME280;57850;52.922;6.256;2023-04-30T07:43:22;102782.69;;;14.04;100.00
12468;BME280;57850;52.922;6.256;2023-04-30T07:45:49;102832.75;;;12.83;100.00
12468;BME280;57850;52.922;6.256;2023-04-30T07:48:17;102816.53;;;13.20;100.00
12468;BME280;57850;52.922;6.256;2023-04-30T07:50:46;102789.50;;;14.13;100.00
12468;BME280;57850;52.922;6.256;2023-04-30T07:53:13;102781.47;;;14.22;100.00
12468;BME280;57850;52.922;6.256;2023-04-30T07:55:39;102797.97;;;13.84;100.00
12468;BME280;57850;52.922;6.256;2023-04-30T07:58:06;102801.56;;;13.77;100.00
12468;BME280;57850;52.922;6.256;2023-04-30T08:00:34;102796.78;;;14.00;100.00
12468;BME280;57850;52.922;6.256;2023-04-30T08:03:01;102785.63;;;14.33;100.00
12468;BME280;57850;52.922;6.256;2023-04-30T08:05:27;102819.94;;;13.77;100.00
12468;BME280;57850;52.922;6.256;2023-04-30T08:07:54;102808.59;;;13.76;100.00
12468;BME280;57850;52.922;6.256;2023-04-30T08:10:21;102817.31;;;13.77;100.00
12468;BME280;57850;52.922;6.256;2023-04-30T08:12:47;102801.56;;;14.23;100.00
12468;BME280;57850;52.922;6.256;2023-04-30T08:15:14;102772.34;;;15.18;100.00
12468;BME280;57850;52.922;6.256;2023-04-30T08:17:41;102765.47;;;15.11;100.00
12468;BME280;57850;52.922;6.256;2023-04-30T08:20:09;102766.38;;;15.45;100.00
12468;BME280;57850;52.922;6.256;2023-04-30T08:22:36;102744.31;;;15.84;100.00
12468;BME280;57850;52.922;6.256;2023-04-30T08:25:03;102720.19;;;15.99;100.00
12468;BME280;57850;52.922;6.256;2023-04-30T08:27:30;102724.75;;;15.93;100.00
12468;BME280;57850;52.922;6.256;2023-04-30T08:29:57;102731.75;;;16.23;100.00
12468;BME280;57850;52.922;6.256;2023-04-30T08:32:23;102716.69;;;16.57;100.00
12468;BME280;57850;52.922;6.256;2023-04-30T08:34:52;102697.38;;;16.85;100.00
12468;BME280;57850;52.922;6.256;2023-04-30T08:37:19;102726.22;;;16.62;100.00
12468;BME280;57850;52.922;6.256;2023-04-30T08:39:45;102725.59;;;16.24;100.00
12468;BME280;57850;52.922;6.256;2023-04-30T08:42:13;102719.47;;;16.51;100.00
12468;BME280;57850;52.922;6.256;2023-04-30T08:44:39;102748.09;;;16.05;100.00
12468;BME280;57850;52.922;6.256;2023-04-30T08:47:09;102727.22;;;15.99;100.00
12468;BME280;57850;52.922;6.256;2023-04-30T08:49:39;102749.59;;;15.83;100.00
12468;BME280;57850;52.922;6.256;2023-04-30T08:52:07;102705.06;;;16.65;100.00
12468;BME280;57850;52.922;6.256;2023-04-30T08:54:35;102709.00;;;16.50;100.00
12468;BME280;57850;52.922;6.256;2023-04-30T08:57:01;102717.97;;;16.44;100.00
12468;BME280;57850;52.922;6.256;2023-04-30T08:59:28;102691.31;;;17.07;100.00
12468;BME280;57850;52.922;6.256;2023-04-30T09:01:55;102689.66;;;17.05;100.00
12468;BME280;57850;52.922;6.256;2023-04-30T09:04:21;102748.41;;;16.25;100.00
12468;BME280;57850;52.922;6.256;2023-04-30T09:06:51;102692.19;;;17.08;100.00
12468;BME280;57850;52.922;6.256;2023-04-30T09:09:19;102720.25;;;16.56;100.00
12468;BME280;57850;52.922;6.256;2023-04-30T09:11:46;102713.66;;;16.70;100.00
12468;BME280;57850;52.922;6.256;2023-04-30T09:14:12;102738.97;;;16.17;100.00
12468;BME280;57850;52.922;6.256;2023-04-30T09:16:46;102721.97;;;16.57;100.00
12468;BME280;57850;52.922;6.256;2023-04-30T09:19:23;102681.09;;;17.74;100.00
12468;BME280;57850;52.922;6.256;2023-04-30T09:21:50;102630.31;;;18.78;100.00
12468;BME280;57850;52.922;6.256;2023-04-30T09:24:17;102701.53;;;16.92;100.00
12468;BME280;57850;52.922;6.256;2023-04-30T09:26:45;102690.06;;;17.44;100.00
12468;BME280;57850;52.922;6.256;2023-04-30T09:29:12;102606.81;;;18.92;100.00
12468;BME280;57850;52.922;6.256;2023-04-30T09:31:45;102626.41;;;18.66;100.00
12468;BME280;57850;52.922;6.256;2023-04-30T09:34:12;102630.13;;;18.17;100.00
12468;BME280;57850;52.922;6.256;2023-04-30T09:36:50;102639.59;;;18.01;100.00
12468;BME280;57850;52.922;6.256;2023-04-30T09:39:17;102601.25;;;18.98;100.00
12468;BME280;57850;52.922;6.256;2023-04-30T09:41:45;102568.59;;;20.31;100.00
12468;BME280;57850;52.922;6.256;2023-04-30T09:44:27;102508.91;;;21.24;100.00
12468;BME280;57850;52.922;6.256;2023-04-30T09:46:55;102471.44;;;21.61;100.00
12468;BME280;57850;52.922;6.256;2023-04-30T09:49:22;102443.25;;;22.20;100.00
12468;BME280;57850;52.922;6.256;2023-04-30T09:51:55;102486.25;;;21.34;100.00
12468;BME280;57850;52.922;6.256;2023-04-30T09:54:24;102555.00;;;20.20;100.00
12468;BME280;57850;52.922;6.256;2023-04-30T09:56:53;102481.91;;;21.33;100.00
12468;BME280;57850;52.922;6.256;2023-04-30T09:59:21;102472.44;;;21.43;99.53
12468;BME280;57850;52.922;6.256;2023-04-30T10:01:50;102452.31;;;22.02;99.90
12468;BME280;57850;52.922;6.256;2023-04-30T10:04:18;102403.59;;;22.87;96.56
12468;BME280;57850;52.922;6.256;2023-04-30T10:06:45;102379.78;;;23.54;97.53
12468;BME280;57850;52.922;6.256;2023-04-30T10:09:12;102399.84;;;22.62;94.66
12468;BME280;57850;52.922;6.256;2023-04-30T10:11:42;102411.22;;;22.79;95.88
12468;BME280;57850;52.922;6.256;2023-04-30T10:14:12;102451.88;;;21.62;96.17
12468;BME280;57850;52.922;6.256;2023-04-30T10:16:45;102426.28;;;22.36;97.62
12468;BME280;57850;52.922;6.256;2023-04-30T10:19:14;102442.53;;;21.71;97.55
12468;BME280;57850;52.922;6.256;2023-04-30T10:21:45;102519.00;;;20.14;97.92
12468;BME280;57850;52.922;6.256;2023-04-30T10:24:13;102441.56;;;21.87;97.28
12468;BME280;57850;52.922;6.256;2023-04-30T10:26:40;102398.25;;;22.59;96.74
12468;BME280;57850;52.922;6.256;2023-04-30T10:29:08;102424.00;;;22.01;95.79
12468;BME280;57850;52.922;6.256;2023-04-30T10:31:36;102470.69;;;20.78;95.09
12468;BME280;57850;52.922;6.256;2023-04-30T10:34:12;102491.53;;;20.68;97.84
12468;BME280;57850;52.922;6.256;2023-04-30T10:36:42;102368.78;;;23.45;97.17
12468;BME280;57850;52.922;6.256;2023-04-30T10:39:11;102347.91;;;23.91;95.45
12468;BME280;57850;52.922;6.256;2023-04-30T10:41:39;102375.16;;;22.60;92.44
12468;BME280;57850;52.922;6.256;2023-04-30T10:44:06;102361.00;;;23.28;93.17
12468;BME280;57850;52.922;6.256;2023-04-30T10:46:33;102351.53;;;23.51;94.70
12468;BME280;57850;52.922;6.256;2023-04-30T10:49:02;102340.50;;;23.70;90.42
12468;BME280;57850;52.922;6.256;2023-04-30T10:51:45;102376.13;;;22.45;93.45
12468;BME280;57850;52.922;6.256;2023-04-30T10:54:15;102361.94;;;23.41;90.82
12468;BME280;57850;52.922;6.256;2023-04-30T10:56:44;102362.22;;;23.10;94.85
12468;BME280;57850;52.922;6.256;2023-04-30T10:59:11;102382.72;;;22.67;95.65
12468;BME280;57850;52.922;6.256;2023-04-30T11:01:56;102390.31;;;22.73;97.66
12468;BME280;57850;52.922;6.256;2023-04-30T11:04:24;102319.25;;;24.20;92.36
12468;BME280;57850;52.922;6.256;2023-04-30T11:07:00;102321.97;;;24.06;89.29
12468;BME280;57850;52.922;6.256;2023-04-30T11:09:36;102287.28;;;24.57;90.58
12468;BME280;57850;52.922;6.256;2023-04-30T11:12:05;102291.50;;;24.35;92.32
12468;BME280;57850;52.922;6.256;2023-04-30T11:14:39;102251.97;;;25.48;91.07
12468;BME280;57850;52.922;6.256;2023-04-30T11:17:06;102233.00;;;26.41;88.75
12468;BME280;57850;52.922;6.256;2023-04-30T11:19:34;102301.94;;;24.51;86.97
12468;BME280;57850;52.922;6.256;2023-04-30T11:22:23;102258.00;;;25.04;88.52
12468;BME280;57850;52.922;6.256;2023-04-30T11:25:01;102248.66;;;25.10;90.30
12468;BME280;57850;52.922;6.256;2023-04-30T11:27:30;102230.81;;;26.02;87.83
12468;BME280;57850;52.922;6.256;2023-04-30T11:29:57;102220.09;;;26.57;87.65
12468;BME280;57850;52.922;6.256;2023-04-30T11:32:25;102214.53;;;26.27;88.63
12468;BME280;57850;52.922;6.256;2023-04-30T11:34:54;102215.75;;;26.34;87.53
12468;BME280;57850;52.922;6.256;2023-04-30T11:37:29;102249.41;;;24.75;88.77
12468;BME280;57850;52.922;6.256;2023-04-30T11:39:56;102248.66;;;25.10;92.73
12468;BME280;57850;52.922;6.256;2023-04-30T11:42:22;102298.53;;;23.98;89.24
12468;BME280;57850;52.922;6.256;2023-04-30T11:44:49;102225.81;;;25.97;88.99
12468;BME280;57850;52.922;6.256;2023-04-30T11:47:15;102201.59;;;26.54;89.91
12468;BME280;57850;52.922;6.256;2023-04-30T11:49:42;102200.53;;;26.46;87.63
12468;BME280;57850;52.922;6.256;2023-04-30T11:52:11;102155.13;;;27.29;87.61
12468;BME280;57850;52.922;6.256;2023-04-30T11:54:38;102167.53;;;26.88;87.46
12468;BME280;57850;52.922;6.256;2023-04-30T11:57:05;102159.94;;;27.25;87.06
12468;BME280;57850;52.922;6.256;2023-04-30T11:59:39;102215.47;;;25.25;87.42
12468;BME280;57850;52.922;6.256;2023-04-30T12:02:06;102229.38;;;24.70;89.62
12468;BME280;57850;52.922;6.256;2023-04-30T12:04:33;102189.72;;;25.92;88.19
12468;BME280;57850;52.922;6.256;2023-04-30T12:06:59;102195.66;;;25.62;88.36
12468;BME280;57850;52.922;6.256;2023-04-30T12:09:28;102202.09;;;25.25;88.02
12468;BME280;57850;52.922;6.256;2023-04-30T12:11:55;102177.44;;;25.89;89.14
12468;BME280;57850;52.922;6.256;2023-04-30T12:14:23;102236.41;;;24.34;88.59
12468;BME280;57850;52.922;6.256;2023-04-30T12:16:51;102242.63;;;24.22;90.10
12468;BME280;57850;52.922;6.256;2023-04-30T12:19:20;102225.72;;;24.83;86.67
12468;BME280;57850;52.922;6.256;2023-04-30T12:21:49;102214.94;;;24.72;86.76
12468;BME280;57850;52.922;6.256;2023-04-30T12:24:19;102153.09;;;26.37;88.63
12468;BME280;57850;52.922;6.256;2023-04-30T12:26:47;102146.97;;;26.46;87.33
12468;BME280;57850;52.922;6.256;2023-04-30T12:29:15;102149.16;;;26.52;86.92
12468;BME280;57850;52.922;6.256;2023-04-30T12:31:42;102168.09;;;25.84;85.50
12468;BME280;57850;52.922;6.256;2023-04-30T12:34:12;102147.50;;;26.06;88.55
12468;BME280;57850;52.922;6.256;2023-04-30T12:36:40;102153.34;;;26.23;88.24
12468;BME280;57850;52.922;6.256;2023-04-30T12:39:08;102163.69;;;25.83;86.67
12468;BME280;57850;52.922;6.256;2023-04-30T12:41:39;102135.81;;;26.30;88.47
12468;BME280;57850;52.922;6.256;2023-04-30T12:44:18;102127.69;;;26.95;84.85
12468;BME280;57850;52.922;6.256;2023-04-30T12:46:45;102150.91;;;26.31;84.93
12468;BME280;57850;52.922;6.256;2023-04-30T12:49:21;102262.03;;;22.95;88.33